Snow Hill, North Carolina
Current Conditions -  °F | °C
As of 11:15 AM on Sunday 23 Nov 2014 (Local Time) from KISO Reporting Station
Light Rain Light Rain  
Wind Chill: 52°   Ceiling: 700
Heat Index: 52°   Visibility: 10mi
Dew Point: 46°   Wind: 3mph
Humidity: 82%   Direction: 80°E
Pressure: 30.22"   Gusts: NA
Location:  35.45°N, 77.68°W
Report Text: KISO 231615Z AUTO 08003KT 10SM -RA BKN007 BKN055 11/08 A3022 RMK AO3
Loading
Personal Weather Stations






























Interactive Weather Map New forecast layout! Learn more

10-Day Weather Forecast

Advertisements
Track Severe Weather on mobile